createdAt,value
2023-04-22T00:00:09.089Z,101050.41
2023-04-22T00:02:38.732Z,101032.16
2023-04-22T00:05:07.198Z,101042.63
2023-04-22T00:07:36.138Z,101037.47
2023-04-22T00:10:04.161Z,101033.94
2023-04-22T00:12:31.997Z,101034.09
2023-04-22T00:14:59.466Z,101030.53
2023-04-22T00:17:26.897Z,101023.66
2023-04-22T00:19:54.490Z,101011.31
2023-04-22T00:22:21.923Z,101014.84
2023-04-22T00:24:50.628Z,101007.06
2023-04-22T00:27:18.614Z,101014.06
2023-04-22T00:29:45.998Z,101009.75
2023-04-22T00:32:13.430Z,101002.81
2023-04-22T00:34:40.814Z,101009.66
2023-04-22T00:37:08.299Z,101005.50
2023-04-22T00:39:39.240Z,101002.91
2023-04-22T00:42:08.571Z,101003.72
2023-04-22T00:44:37.239Z,100992.38
2023-04-22T00:47:06.553Z,101001.22
2023-04-22T00:49:36.077Z,101001.19
2023-04-22T00:52:03.560Z,100997.59
2023-04-22T00:54:32.041Z,100993.28
2023-04-22T00:56:59.833Z,100997.56
2023-04-22T00:59:28.745Z,101000.28
2023-04-22T01:01:57.136Z,100994.28
2023-04-22T01:04:25.668Z,100994.25
2023-04-22T01:06:53.927Z,100985.66
2023-04-22T01:09:21.664Z,100978.66
2023-04-22T01:11:49.080Z,100991.59
2023-04-22T01:14:17.040Z,100996.84
2023-04-22T01:16:46.242Z,100988.97
2023-04-22T01:19:13.791Z,100983.91
2023-04-22T01:21:41.673Z,100983.81
2023-04-22T01:24:10.595Z,100984.69
2023-04-22T01:26:38.659Z,100989.16
2023-04-22T01:29:06.624Z,100980.44
2023-04-22T01:31:34.654Z,100980.38
2023-04-22T01:34:02.516Z,100979.59
2023-04-22T01:36:30.109Z,100986.47
2023-04-22T01:38:57.678Z,100988.28
2023-04-22T01:41:26.775Z,100978.84
2023-04-22T01:43:54.691Z,100976.28
2023-04-22T01:46:22.152Z,100971.84
2023-04-22T01:48:51.641Z,100966.69
2023-04-22T01:51:20.355Z,100967.56
2023-04-22T01:53:48.251Z,100969.31
2023-04-22T01:56:15.836Z,100964.06
2023-04-22T01:58:45.052Z,100967.53
2023-04-22T02:01:13.734Z,100960.72
2023-04-22T02:03:41.515Z,100958.13
2023-04-22T02:06:09.103Z,100956.38
2023-04-22T02:08:36.537Z,100949.47
2023-04-22T02:11:03.985Z,100946.00
2023-04-22T02:13:36.516Z,100945.97
2023-04-22T02:16:06.342Z,100938.13
2023-04-22T02:18:34.111Z,100939.03
2023-04-22T02:21:01.686Z,100936.50
2023-04-22T02:23:29.751Z,100933.91
2023-04-22T02:25:57.343Z,100935.56
2023-04-22T02:28:24.739Z,100938.19
2023-04-22T02:30:52.134Z,100939.13
2023-04-22T02:33:20.885Z,100928.69
2023-04-22T02:35:48.611Z,100937.38
2023-04-22T02:38:16.293Z,100933.06
2023-04-22T02:40:43.736Z,100930.44
2023-04-22T02:43:11.146Z,100921.84
2023-04-22T02:45:38.675Z,100924.44
2023-04-22T02:48:06.265Z,100925.25
2023-04-22T02:50:35.001Z,100926.06
2023-04-22T02:53:02.476Z,100919.25
2023-04-22T02:55:30.404Z,100921.00
2023-04-22T02:57:57.836Z,100922.69
2023-04-22T03:00:25.479Z,100926.97
2023-04-22T03:02:53.524Z,100926.13
2023-04-22T03:05:21.137Z,100925.28
2023-04-22T03:07:49.933Z,100926.13
2023-04-22T03:10:17.387Z,100923.59
2023-04-22T03:12:44.830Z,100920.97
2023-04-22T03:15:12.989Z,100912.31
2023-04-22T03:17:40.476Z,100917.50
2023-04-22T03:20:08.785Z,100917.53
2023-04-22T03:22:36.249Z,100915.81
2023-04-22T03:25:06.312Z,100918.38
2023-04-22T03:27:33.790Z,100918.38
2023-04-22T03:30:01.237Z,100922.69
2023-04-22T03:32:28.767Z,100917.53
2023-04-22T03:34:56.195Z,100920.13
2023-04-22T03:37:23.773Z,100912.34
2023-04-22T03:39:51.166Z,100916.66
2023-04-22T03:42:19.953Z,100920.09
2023-04-22T03:44:47.353Z,100917.53
2023-04-22T03:47:14.906Z,100917.47
2023-04-22T03:49:43.964Z,100927.00
2023-04-22T03:52:11.388Z,100920.97
2023-04-22T03:54:38.807Z,100920.13
2023-04-22T03:57:06.293Z,100916.63
2023-04-22T03:59:35.013Z,100922.56
2023-04-22T04:02:02.642Z,100921.84
2023-04-22T04:04:30.650Z,100923.59
2023-04-22T04:06:58.315Z,100920.97
2023-04-22T04:09:25.782Z,100924.41
2023-04-22T04:11:53.210Z,100928.69
2023-04-22T04:14:20.672Z,100922.69
2023-04-22T04:16:49.515Z,100922.72
2023-04-22T04:19:16.972Z,100920.13
2023-04-22T04:21:44.378Z,100922.69
2023-04-22T04:24:11.795Z,100922.69
2023-04-22T04:26:39.307Z,100918.38
2023-04-22T04:29:06.810Z,100920.13
2023-04-22T04:31:35.304Z,100918.41
2023-04-22T04:34:04.282Z,100921.78
2023-04-22T04:36:32.785Z,100910.53
2023-04-22T04:39:00.220Z,100920.13
2023-04-22T04:41:28.186Z,100917.47
2023-04-22T04:43:56.285Z,100912.22
2023-04-22T04:46:23.826Z,100907.94
2023-04-22T04:48:51.731Z,100915.78
2023-04-22T04:51:20.765Z,100920.09
2023-04-22T04:53:48.182Z,100920.97
2023-04-22T04:56:16.790Z,100925.28
2023-04-22T04:58:44.207Z,100919.97
2023-04-22T05:01:11.688Z,100914.81
2023-04-22T05:03:39.362Z,100912.09
2023-04-22T05:06:08.239Z,100917.22
2023-04-22T05:08:36.958Z,100909.13
2023-04-22T05:11:04.360Z,100909.34
2023-04-22T05:13:31.758Z,100907.56
2023-04-22T05:15:59.789Z,100902.19
2023-04-22T05:18:27.362Z,100903.72
2023-04-22T05:20:54.764Z,100900.03
2023-04-22T05:23:22.168Z,100908.09
2023-04-22T05:25:53.271Z,100907.19
2023-04-22T05:28:20.922Z,100898.84
2023-04-22T05:30:48.310Z,100900.78
2023-04-22T05:33:15.853Z,100903.94
2023-04-22T05:35:43.389Z,100900.50
2023-04-22T05:38:11.041Z,100875.25
2023-04-22T05:40:39.382Z,100876.66
2023-04-22T05:43:08.119Z,100887.84
2023-04-22T05:45:35.806Z,100892.25
2023-04-22T05:48:03.453Z,100878.28
2023-04-22T05:50:30.978Z,100875.41
2023-04-22T05:52:58.388Z,100886.44
2023-04-22T05:55:25.826Z,100883.13
2023-04-22T05:57:53.242Z,100890.03
2023-04-22T06:00:22.036Z,100890.03
2023-04-22T06:02:49.686Z,100889.06
2023-04-22T06:05:17.443Z,100889.00
2023-04-22T06:07:45.381Z,100877.84
2023-04-22T06:10:12.839Z,100880.84
2023-04-22T06:12:40.741Z,100874.91
2023-04-22T06:15:09.001Z,100878.69
2023-04-22T06:17:37.878Z,100892.72
2023-04-22T06:20:06.590Z,100896.22
2023-04-22T06:22:34.023Z,100896.97
2023-04-22T06:25:01.471Z,100908.41
2023-04-22T06:27:28.892Z,100907.22
2023-04-22T06:29:56.274Z,100906.09
2023-04-22T06:32:23.755Z,100901.91
2023-04-22T06:34:52.464Z,100918.47
2023-04-22T06:37:19.878Z,100911.59
2023-04-22T06:39:47.334Z,100912.63
2023-04-22T06:42:14.752Z,100916.50
2023-04-22T06:44:42.438Z,100905.03
2023-04-22T06:47:09.853Z,100908.78
2023-04-22T06:49:39.608Z,100904.56
2023-04-22T06:52:08.738Z,100905.22
2023-04-22T06:54:36.156Z,100903.31
2023-04-22T06:57:03.639Z,100902.81
2023-04-22T06:59:31.098Z,100901.84
2023-04-22T07:01:58.524Z,100905.50
2023-04-22T07:04:27.621Z,100892.50
2023-04-22T07:06:55.279Z,100899.75
2023-04-22T07:09:24.007Z,100891.06
2023-04-22T07:11:51.428Z,100895.44
2023-04-22T07:14:18.986Z,100899.22
2023-04-22T07:16:47.435Z,100899.34
2023-04-22T07:19:14.949Z,100893.47
2023-04-22T07:21:42.368Z,100906.28
2023-04-22T07:24:12.112Z,100906.25
2023-04-22T07:26:42.084Z,100901.53
2023-04-22T07:29:09.713Z,100898.84
2023-04-22T07:31:37.410Z,100899.41
2023-04-22T07:34:04.900Z,100899.06
2023-04-22T07:36:33.168Z,100897.13
2023-04-22T07:39:00.722Z,100895.56
2023-04-22T07:41:28.160Z,100891.88
2023-04-22T07:43:56.866Z,100887.44
2023-04-22T07:46:24.555Z,100895.91
2023-04-22T07:48:52.075Z,100882.47
2023-04-22T07:51:19.513Z,100880.97
2023-04-22T07:53:46.942Z,100880.00
2023-04-22T07:56:14.698Z,100879.53
2023-04-22T07:58:42.119Z,100877.00
2023-04-22T08:01:11.258Z,100874.00
2023-04-22T08:03:38.887Z,100861.44
2023-04-22T08:06:07.094Z,100852.06
2023-04-22T08:08:34.493Z,100847.09
2023-04-22T08:11:01.927Z,100844.06
2023-04-22T08:13:29.368Z,100857.09
2023-04-22T08:15:56.841Z,100856.91
2023-04-22T08:18:25.648Z,100845.72
2023-04-22T08:20:54.224Z,100836.53
2023-04-22T08:23:21.683Z,100840.91
2023-04-22T08:25:50.019Z,100833.84
2023-04-22T08:28:17.583Z,100835.31
2023-04-22T08:30:45.035Z,100841.63
2023-04-22T08:33:12.806Z,100832.53
2023-04-22T08:35:41.913Z,100839.22
2023-04-22T08:38:09.346Z,100831.72
2023-04-22T08:40:36.867Z,100830.94
2023-04-22T08:43:05.262Z,100832.03
2023-04-22T08:45:33.027Z,100839.75
2023-04-22T08:48:01.531Z,100835.19
2023-04-22T08:50:30.008Z,100828.59
2023-04-22T08:52:58.746Z,100830.47
2023-04-22T08:55:27.496Z,100831.63
2023-04-22T08:57:55.497Z,100828.47
2023-04-22T09:00:22.948Z,100833.25
2023-04-22T09:02:51.629Z,100821.97
2023-04-22T09:05:20.172Z,100822.53
2023-04-22T09:07:47.816Z,100823.50
2023-04-22T09:10:16.621Z,100820.06
2023-04-22T09:12:44.024Z,100818.03
2023-04-22T09:15:12.754Z,100807.41
2023-04-22T09:17:41.319Z,100813.88
2023-04-22T09:20:09.780Z,100818.78
2023-04-22T09:22:41.668Z,100819.34
2023-04-22T09:25:18.316Z,100803.13
2023-04-22T09:27:49.716Z,100803.66
2023-04-22T09:30:19.481Z,100801.41
2023-04-22T09:32:54.674Z,100795.44
2023-04-22T09:35:31.689Z,100793.47
2023-04-22T09:38:00.647Z,100790.50
2023-04-22T09:40:30.927Z,100791.47
2023-04-22T09:43:01.612Z,100791.81
2023-04-22T09:45:31.037Z,100787.19
2023-04-22T09:48:04.616Z,100783.03
2023-04-22T09:50:32.023Z,100770.44
2023-04-22T09:53:01.919Z,100774.19
2023-04-22T09:55:33.995Z,100771.81
2023-04-22T09:58:07.062Z,100766.72
2023-04-22T10:00:41.122Z,100766.81
2023-04-22T10:03:10.705Z,100759.88
2023-04-22T10:05:38.900Z,100752.75
2023-04-22T10:08:07.715Z,100760.00
2023-04-22T10:10:37.639Z,100763.63
2023-04-22T10:13:06.688Z,100751.94
2023-04-22T10:15:36.684Z,100759.16
2023-04-22T10:18:07.673Z,100753.88
2023-04-22T10:20:38.678Z,100743.75
2023-04-22T10:23:07.054Z,100741.75
2023-04-22T10:25:35.758Z,100741.50
2023-04-22T10:28:05.236Z,100731.59
2023-04-22T10:30:34.498Z,100728.25
2023-04-22T10:33:36.669Z,100727.44
2023-04-22T10:36:09.053Z,100721.22
2023-04-22T10:38:36.811Z,100717.00
2023-04-22T10:41:05.895Z,100720.69
2023-04-22T10:43:42.301Z,100701.75
2023-04-22T10:46:54.572Z,100706.47
2023-04-22T10:49:23.450Z,100711.81
2023-04-22T10:51:52.410Z,100717.38
2023-04-22T10:54:58.405Z,100704.66
2023-04-22T10:57:37.353Z,100704.44
2023-04-22T11:00:42.159Z,100697.19
2023-04-22T11:03:25.617Z,100690.69
2023-04-22T11:06:18.605Z,100699.09
2023-04-22T11:08:47.409Z,100704.63
2023-04-22T11:11:14.864Z,100695.97
2023-04-22T11:13:43.686Z,100687.09
2023-04-22T11:16:11.705Z,100688.31
2023-04-22T11:18:39.678Z,100675.81
2023-04-22T11:21:08.794Z,100664.44
2023-04-22T11:23:37.570Z,100669.88
2023-04-22T11:26:07.422Z,100670.69
2023-04-22T11:28:34.912Z,100675.44
2023-04-22T11:31:03.592Z,100674.03
2023-04-22T11:33:31.103Z,100670.84
2023-04-22T11:35:58.780Z,100678.97
2023-04-22T11:38:26.226Z,100665.56
2023-04-22T11:40:57.730Z,100666.41
2023-04-22T11:43:25.535Z,100655.34
2023-04-22T11:45:53.119Z,100653.38
2023-04-22T11:48:20.552Z,100650.94
2023-04-22T11:50:48.507Z,100659.25
2023-04-22T11:53:17.892Z,100651.19
2023-04-22T11:55:47.050Z,100648.97
2023-04-22T11:58:17.487Z,100654.66
2023-04-22T12:00:47.824Z,100642.41
2023-04-22T12:03:17.375Z,100642.25
2023-04-22T12:05:47.059Z,100648.56
2023-04-22T12:08:17.198Z,100641.13
2023-04-22T12:10:46.544Z,100634.09
2023-04-22T12:13:22.367Z,100634.63
2023-04-22T12:15:54.362Z,100646.31
2023-04-22T12:18:29.593Z,100636.47
2023-04-22T12:21:00.483Z,100641.94
2023-04-22T12:23:28.431Z,100640.91
2023-04-22T12:25:55.858Z,100637.28
2023-04-22T12:28:24.611Z,100627.34
2023-04-22T12:30:52.154Z,100629.88
2023-04-22T12:33:19.592Z,100624.59
2023-04-22T12:35:48.794Z,100616.44
2023-04-22T12:38:16.356Z,100623.19
2023-04-22T12:40:43.766Z,100626.19
2023-04-22T12:43:11.271Z,100625.41
2023-04-22T12:45:40.010Z,100621.44
2023-04-22T12:48:07.414Z,100616.03
2023-04-22T12:50:34.854Z,100610.44
2023-04-22T12:53:02.246Z,100616.75
2023-04-22T12:55:30.542Z,100607.63
2023-04-22T12:57:58.067Z,100607.44
2023-04-22T13:00:25.971Z,100611.53
2023-04-22T13:02:54.783Z,100609.44
2023-04-22T13:05:22.384Z,100599.47
2023-04-22T13:07:56.408Z,100598.34
2023-04-22T13:10:31.313Z,100601.00
2023-04-22T13:13:06.370Z,100598.03
2023-04-22T13:15:44.021Z,100590.53
2023-04-22T13:18:12.849Z,100583.28
2023-04-22T13:20:41.772Z,100584.78
2023-04-22T13:23:09.660Z,100577.16
2023-04-22T13:25:37.224Z,100582.75
2023-04-22T13:28:04.671Z,100567.50
2023-04-22T13:30:32.144Z,100568.03
2023-04-22T13:32:59.551Z,100569.25
2023-04-22T13:35:28.450Z,100559.56
2023-04-22T13:37:56.101Z,100567.13
2023-04-22T13:40:23.494Z,100559.31
2023-04-22T13:42:51.010Z,100553.28
2023-04-22T13:45:18.693Z,100555.28
2023-04-22T13:47:46.132Z,100543.75
2023-04-22T13:50:13.556Z,100535.88
2023-04-22T13:52:42.618Z,100538.63
2023-04-22T13:55:10.699Z,100531.44
2023-04-22T13:57:38.170Z,100522.91
2023-04-22T14:00:06.748Z,100519.19
2023-04-22T14:02:34.308Z,100522.22
2023-04-22T14:05:02.228Z,100508.09
2023-04-22T14:07:29.639Z,100513.91
2023-04-22T14:09:58.377Z,100510.44
2023-04-22T14:12:25.907Z,100504.66
2023-04-22T14:14:53.313Z,100507.56
2023-04-22T14:17:22.497Z,100509.97
2023-04-22T14:19:49.900Z,100491.97
2023-04-22T14:22:17.308Z,100491.09
2023-04-22T14:24:44.737Z,100498.78
2023-04-22T14:27:13.440Z,100496.97
2023-04-22T14:29:41.358Z,100491.66
2023-04-22T14:32:09.172Z,100498.59
2023-04-22T14:34:36.571Z,100485.19
2023-04-22T14:37:04.010Z,100481.59
2023-04-22T14:39:31.430Z,100485.75
2023-04-22T14:41:58.856Z,100479.16
2023-04-22T14:44:27.832Z,100483.47
2023-04-22T14:46:55.254Z,100490.25
2023-04-22T14:49:22.756Z,100475.91
2023-04-22T14:51:50.378Z,100475.34
2023-04-22T14:54:17.790Z,100468.72
2023-04-22T14:56:45.191Z,100457.31
2023-04-22T14:59:12.606Z,100470.41
2023-04-22T15:01:43.039Z,100463.94
2023-04-22T15:04:12.693Z,100459.84
2023-04-22T15:06:40.308Z,100449.56
2023-04-22T15:09:07.998Z,100441.69
2023-04-22T15:11:35.463Z,100450.84
2023-04-22T15:14:02.930Z,100454.25
2023-04-22T15:16:31.052Z,100453.06
2023-04-22T15:19:00.540Z,100445.09
2023-04-22T15:21:27.994Z,100448.28
2023-04-22T15:23:55.449Z,100445.72
2023-04-22T15:26:22.890Z,100442.06
2023-04-22T15:28:51.482Z,100443.03
2023-04-22T15:31:19.553Z,100433.16
2023-04-22T15:33:47.032Z,100432.53
2023-04-22T15:36:18.114Z,100428.41
2023-04-22T15:38:45.555Z,100432.09
2023-04-22T15:41:12.990Z,100429.31
2023-04-22T15:43:40.604Z,100424.22
2023-04-22T15:46:08.475Z,100424.97
2023-04-22T15:48:35.913Z,100421.56
2023-04-22T15:51:03.356Z,100408.31
2023-04-22T15:53:32.101Z,100409.09
2023-04-22T15:55:59.526Z,100413.72
2023-04-22T15:58:28.904Z,100403.16
2023-04-22T16:01:07.673Z,100408.91
2023-04-22T16:03:45.415Z,100399.84
2023-04-22T16:06:13.141Z,100397.44
2023-04-22T16:08:41.865Z,100399.84
2023-04-22T16:11:09.426Z,100398.78
2023-04-22T16:13:38.784Z,100397.84
2023-04-22T16:16:06.638Z,100391.84
2023-04-22T16:18:34.193Z,100387.41
2023-04-22T16:21:02.222Z,100393.31
2023-04-22T16:23:29.689Z,100390.53
2023-04-22T16:25:58.740Z,100388.22
2023-04-22T16:28:26.178Z,100390.50
2023-04-22T16:30:53.622Z,100385.94
2023-04-22T16:33:21.045Z,100376.94
2023-04-22T16:35:48.449Z,100379.75
2023-04-22T16:38:16.566Z,100377.31
2023-04-22T16:40:44.003Z,100369.44
2023-04-22T16:43:12.965Z,100376.06
2023-04-22T16:45:40.503Z,100378.06
2023-04-22T16:48:07.941Z,100382.75
2023-04-22T16:50:35.510Z,100374.00
2023-04-22T16:53:02.902Z,100376.72
2023-04-22T16:55:30.301Z,100370.88
2023-04-22T16:58:00.860Z,100372.88
2023-04-22T17:00:30.512Z,100375.31
2023-04-22T17:02:58.132Z,100363.69
2023-04-22T17:05:25.644Z,100366.69
2023-04-22T17:07:53.048Z,100365.94
2023-04-22T17:10:20.652Z,100369.88
2023-04-22T17:12:48.084Z,100366.69
2023-04-22T17:15:15.584Z,100370.00
2023-04-22T17:17:44.358Z,100365.38
2023-04-22T17:20:12.316Z,100362.00
2023-04-22T17:22:39.762Z,100358.44
2023-04-22T17:25:08.567Z,100360.66
2023-04-22T17:27:35.982Z,100365.84
2023-04-22T17:30:03.446Z,100357.31
2023-04-22T17:32:30.967Z,100360.28
2023-04-22T17:34:59.780Z,100361.06
2023-04-22T17:37:27.222Z,100359.31
2023-04-22T17:39:56.238Z,100359.56
2023-04-22T17:42:25.288Z,100364.66
2023-04-22T17:45:00.040Z,100369.53
2023-04-22T17:47:27.609Z,100366.59
2023-04-22T17:49:55.096Z,100364.78
2023-04-22T17:52:24.233Z,100368.44
2023-04-22T17:54:52.084Z,100367.84
2023-04-22T17:57:19.511Z,100375.16
2023-04-22T17:59:46.943Z,100363.81
2023-04-22T18:02:15.162Z,100379.53
2023-04-22T18:04:42.755Z,100366.50
2023-04-22T18:07:10.216Z,100371.72
2023-04-22T18:09:39.328Z,100374.84
2023-04-22T18:12:07.026Z,100371.25
2023-04-22T18:14:34.489Z,100373.91
2023-04-22T18:17:02.735Z,100372.81
2023-04-22T18:19:30.252Z,100375.22
2023-04-22T18:22:00.404Z,100377.19
2023-04-22T18:24:28.218Z,100374.81
2023-04-22T18:26:56.985Z,100382.41
2023-04-22T18:29:24.412Z,100377.34
2023-04-22T18:31:51.886Z,100384.81
2023-04-22T18:34:19.509Z,100382.97
2023-04-22T18:36:47.037Z,100377.31
2023-04-22T18:39:14.424Z,100377.97
2023-04-22T18:41:42.838Z,100381.84
2023-04-22T18:44:11.777Z,100386.06
2023-04-22T18:46:39.200Z,100394.59
2023-04-22T18:49:07.408Z,100386.19
2023-04-22T18:51:34.988Z,100389.16
2023-04-22T18:54:02.734Z,100401.84
2023-04-22T18:56:32.784Z,100393.53
2023-04-22T18:59:00.343Z,100397.03
2023-04-22T19:01:29.327Z,100405.66
2023-04-22T19:03:57.012Z,100398.25
2023-04-22T19:06:24.526Z,100399.09
2023-04-22T19:08:52.940Z,100394.47
2023-04-22T19:11:20.441Z,100392.66
2023-04-22T19:13:47.973Z,100392.19
2023-04-22T19:16:15.436Z,100389.34
2023-04-22T19:18:44.736Z,100391.91
2023-04-22T19:21:12.167Z,100381.91
2023-04-22T19:23:40.698Z,100383.28
2023-04-22T19:26:09.533Z,100388.94
2023-04-22T19:28:37.023Z,100384.47
2023-04-22T19:31:05.086Z,100385.09
2023-04-22T19:33:32.957Z,100387.94
2023-04-22T19:36:02.825Z,100385.81
2023-04-22T19:38:30.656Z,100371.84
2023-04-22T19:40:58.146Z,100373.78
2023-04-22T19:43:26.305Z,100366.22
2023-04-22T19:45:54.149Z,100366.91
2023-04-22T19:48:22.193Z,100370.47
2023-04-22T19:50:49.742Z,100366.94
2023-04-22T19:53:19.868Z,100369.56
2023-04-22T19:55:47.506Z,100370.25
2023-04-22T19:58:15.693Z,100369.66
2023-04-22T20:00:43.652Z,100358.47
2023-04-22T20:03:14.368Z,100368.25
2023-04-22T20:05:43.958Z,100362.41
2023-04-22T20:08:14.486Z,100356.00
2023-04-22T20:10:45.875Z,100356.38
2023-04-22T20:13:13.511Z,100358.09
2023-04-22T20:15:41.309Z,100353.06
2023-04-22T20:18:09.370Z,100347.59
2023-04-22T20:20:37.763Z,100356.22
2023-04-22T20:23:10.324Z,100360.41
2023-04-22T20:25:40.594Z,100347.00
2023-04-22T20:28:10.698Z,100343.03
2023-04-22T20:30:39.204Z,100348.53
2023-04-22T20:33:07.285Z,100342.69
2023-04-22T20:35:35.918Z,100341.34
2023-04-22T20:38:04.495Z,100341.09
2023-04-22T20:40:34.598Z,100337.50
2023-04-22T20:43:03.311Z,100338.38
2023-04-22T20:45:32.150Z,100334.94
2023-04-22T20:47:59.675Z,100327.41
2023-04-22T20:50:32.966Z,100318.00
2023-04-22T20:53:01.001Z,100323.34
2023-04-22T20:55:28.523Z,100320.22
2023-04-22T20:57:56.049Z,100317.25
2023-04-22T21:00:23.811Z,100320.13
2023-04-22T21:02:53.697Z,100317.81
2023-04-22T21:05:22.011Z,100326.38
2023-04-22T21:07:51.976Z,100315.88
2023-04-22T21:10:20.462Z,100327.22
2023-04-22T21:12:48.465Z,100319.66
2023-04-22T21:15:16.699Z,100309.41
2023-04-22T21:17:51.672Z,100315.19
2023-04-22T21:20:24.122Z,100311.69
2023-04-22T21:22:52.872Z,100312.53
2023-04-22T21:25:23.142Z,100310.06
2023-04-22T21:27:51.024Z,100309.16
2023-04-22T21:30:19.495Z,100310.00
2023-04-22T21:32:47.007Z,100304.78
2023-04-22T21:35:14.776Z,100312.00
2023-04-22T21:37:43.686Z,100314.50
2023-04-22T21:40:13.294Z,100308.22
2023-04-22T21:42:41.637Z,100303.16
2023-04-22T21:45:09.796Z,100299.69
2023-04-22T21:47:37.250Z,100298.19
2023-04-22T21:50:06.182Z,100303.31
2023-04-22T21:52:33.673Z,100293.75
2023-04-22T21:55:02.569Z,100297.81
2023-04-22T21:57:30.145Z,100296.78
2023-04-22T21:59:57.638Z,100298.66
2023-04-22T22:02:26.628Z,100289.50
2023-04-22T22:04:54.355Z,100302.16
2023-04-22T22:07:22.033Z,100292.03
2023-04-22T22:09:49.791Z,100296.81
2023-04-22T22:12:18.681Z,100295.91
2023-04-22T22:14:46.122Z,100291.63
2023-04-22T22:17:13.644Z,100287.50
2023-04-22T22:19:41.964Z,100293.03
2023-04-22T22:22:09.446Z,100292.25
2023-04-22T22:24:36.954Z,100296.19
2023-04-22T22:27:05.392Z,100291.94
2023-04-22T22:29:34.240Z,100288.09
2023-04-22T22:32:01.865Z,100290.78
2023-04-22T22:34:29.413Z,100294.63
2023-04-22T22:36:56.853Z,100293.34
2023-04-22T22:39:24.509Z,100294.13
2023-04-22T22:41:51.914Z,100291.06
2023-04-22T22:44:19.354Z,100287.75
2023-04-22T22:46:48.129Z,100288.03
2023-04-22T22:49:16.071Z,100282.44
2023-04-22T22:51:43.742Z,100301.47
2023-04-22T22:54:11.237Z,100293.88
2023-04-22T22:56:39.093Z,100290.22
2023-04-22T22:59:06.498Z,100289.25
2023-04-22T23:01:34.163Z,100281.44
2023-04-22T23:04:03.403Z,100282.44
2023-04-22T23:06:31.940Z,100282.69
2023-04-22T23:08:59.337Z,100274.56
2023-04-22T23:11:26.770Z,100269.94
2023-04-22T23:13:54.342Z,100275.94
2023-04-22T23:16:22.199Z,100272.63
2023-04-22T23:18:49.831Z,100273.66
2023-04-22T23:21:20.426Z,100259.66
2023-04-22T23:23:48.160Z,100251.78
2023-04-22T23:26:16.124Z,100261.44
2023-04-22T23:28:44.134Z,100250.09
2023-04-22T23:31:11.860Z,100249.13
2023-04-22T23:33:42.107Z,100248.09
2023-04-22T23:36:10.839Z,100249.91
2023-04-22T23:38:39.648Z,100241.88
2023-04-22T23:41:07.530Z,100248.88
2023-04-22T23:43:34.966Z,100249.69
2023-04-22T23:46:02.423Z,100250.50
2023-04-22T23:48:29.866Z,100244.66
2023-04-22T23:50:57.294Z,100255.16
2023-04-22T23:53:24.703Z,100248.97
2023-04-22T23:55:54.158Z,100257.44
2023-04-22T23:58:21.951Z,100246.81
